Detalii statie MOLDOVA TIGANASI [00001D08]

Toti senzorii

Date Temperatura solului [C]Precipitatii [mm]Voltaj baterie [mV]Leaf Wetness [Min]HC Air temperature [C]HC Relative humidity [%]Punctul de roua [C]
medieminmaxsumaultimatimpmedieminmaxmediemediemin
2018-10-20 15:00:00 14.3 14.3 14.4 0 7352 18.55 17.4 19.48 61.43 10.7 10.4
2018-10-20 16:00:00 14.3 14.3 14.5 0 7352 17.05 16.39 17.6 70.66 11.5 10.8
2018-10-20 17:00:00 14.2 14.2 14.4 0 7148 16.7 16.14 17.36 67.76 10.5 10.2
2018-10-20 18:00:00 14 13.9 14.2 0 7050 15.55 15.14 16.13 70.9 10.1 9.9
2018-10-20 19:00:00 13.8 13.8 14 0 7010 14.98 14.85 15.09 74.99 10.4 10.2
2018-10-20 20:00:00 13.7 13.7 13.9 0 6992 14.47 13.95 14.85 78.01 10.5 10.4
2018-10-20 21:00:00 13.6 13.5 13.8 0 7000 13.54 12.89 14.04 82.23 10.4 10.2
2018-10-20 22:00:00 13.4 13.3 13.6 0 6992 12.9 12.79 13.02 84.82 10.3 10.2
2018-10-20 23:00:00 13.3 13.2 13.5 0 6982 12.5 12.14 12.95 86.02 10 9.9
2018-10-21 00:00:00 13.1 13 13.3 0 6982 11.81 11.68 11.93 89.02 9.9 9.8
2018-10-21 01:00:00 13 12.9 13.2 0 6972 11.67 11.59 11.75 89.15 9.8 9.8
2018-10-21 02:00:00 12.9 12.8 13 0 6972 11.71 11.64 11.77 88.52 9.7 9.7
2018-10-21 03:00:00 12.8 12.8 12.9 0 6962 11.68 11.63 11.75 88.3 9.7 9.7
2018-10-21 04:00:00 12.8 12.7 12.9 0 6942 11.65 11.6 11.69 88.24 9.6 9.5
2018-10-21 05:00:00 12.7 12.6 12.8 0 6942 11.63 11.54 11.7 87.84 9.5 9.5
2018-10-21 06:00:00 12.6 12.5 12.8 0 6914 11.48 11.42 11.54 88.37 9.5 9.5
2018-10-21 07:00:00 12.5 12.4 12.6 0 6904 11.38 11.35 11.42 88.65 9.4 9.4
2018-10-21 08:00:00 12.4 12.3 12.7 0 6914 11.47 11.4 11.68 88.44 9.5 9.4
2018-10-21 09:00:00 12.4 12.4 12.5 0 6942 11.84 11.67 12.03 86.53 9.5 9.4
2018-10-21 10:00:00 12.4 12.4 12.7 0 6992 11.9 11.76 12.05 85.86 9.5 9.4
2018-10-21 11:00:00 12.6 12.5 12.8 0 7342 12.91 12.08 13.87 81.27 9.6 9.4
2018-10-21 12:00:00 12.9 12.4 13.1 0 7362 14.59 13.97 15.49 72.44 9.5 9.2
2018-10-21 13:00:00 13.1 13 13.4 0 7362 16.19 15.04 16.92 62.62 8.8 8.1
2018-10-21 14:00:00 13.4 13.3 13.5 0 7362 17.32 16.8 17.84 50.38 6.7 5.7
2018-10-21 15:00:00 13.5 13.4 13.6 0 7362 17.57 17.22 17.91 46.09 5.6 5.1
2018-10-21 16:00:00 13.5 13.4 13.6 0 7352 17.09 16.53 17.74 46.12 5.1 4.9
2018-10-21 17:00:00 13.4 13.2 13.6 0 7196 15.46 13.96 16.47 50.71 5.1 4.8
2018-10-21 18:00:00 13.1 13 13.4 0 7108 12.58 11.27 13.9 59.18 4.6 4.4
2018-10-21 19:00:00 12.8 12.7 13 0 7040 10.93 10 11.56 65.18 4.5 4.2
2018-10-21 20:00:00 12.5 12.5 12.6 0 7010 10.59 10.14 10.83 68.57 4.9 4.5
2018-10-21 21:00:00 12.2 12.1 12.4 0 7010 10.4 10.09 10.76 71.04 5.2 5.1
2018-10-21 22:00:00 12 12 12.2 0 7010 9.83 9.64 9.98 73.97 5.3 5.1
2018-10-21 23:00:00 11.9 11.7 12.1 0 7000 9.97 9.84 10.26 74.15 5.4 5.3
2018-10-22 00:00:00 11.7 11.7 11.9 0 6992 9.54 8.8 10.21 76.03 5.4 5.2
2018-10-22 01:00:00 11.5 11.3 11.7 0 6992 8.64 8.07 9.16 80.75 5.3 5.2
2018-10-22 02:00:00 11.2 10.9 11.5 0 6982 7.55 7.3 8.02 85.32 5.1 4.9
2018-10-22 03:00:00 11.1 11 11.4 0 6972 6.27 5.67 6.91 91.06 4.8 4.2
2018-10-22 04:00:00 10.9 10.8 11.2 0 6962 5.86 5.23 6.24 92.05 4.5 4.2
2018-10-22 05:00:00 10.6 10.5 10.8 0 6952 4.78 4.41 5.13 95.95 4 3.4
2018-10-22 06:00:00 10.4 10.3 10.6 0 6932 5.16 4.67 5.59 96.21 4.4 3.9
2018-10-22 07:00:00 10.2 10.1 10.5 0 6942 4.54 4.09 4.9 97.67 4.1 3.6
2018-10-22 08:00:00 10.1 10 10.3 0 7284 5.86 4.7 7.51 94.66 4.9 4.5
2018-10-22 09:00:00 10.2 10.1 10.4 0 7382 9.24 7.86 10.09 77.42 5.3 4.8
2018-10-22 10:00:00 10.4 10.2 10.7 0 7372 11.1 10.12 12 67.73 5.2 4.9
2018-10-22 11:00:00 10.8 10.6 11.1 0 7372 13.09 12.18 13.95 58.05 4.8 4.2
2018-10-22 12:00:00 11.2 11 11.4 0 7362 14.24 13.65 14.88 51.06 4 3.6
2018-10-22 13:00:00 11.5 11.4 11.7 0 7372 14.73 14.35 15.12 48.77 3.8 3.5
2018-10-22 14:00:00 11.7 11.5 12 0 7362 15.11 14.34 15.72 47.06 3.7 3.3